Anchorville, MI (48004)

3:17 PM EST on December 07, 2016 (GMT -0500)
Dixie Hwy | | Change Station

Elev 587 ft 42.69 °N, 82.67 °W | Updated 4 seconds ago

Scattered Clouds
Scattered Clouds
39.9 °F
Feels Like 37 °F
N
4.0
Wind Variable Wind from SE

Today
High -- | Low -- °F
--% Chance of Precip.
Yesterday
High -- | Low -- °F
Precip. -- in
Pressure 29.98 in
Visibility 10.0 miles
Clouds Few 3600 ft
Scattered Clouds 20000 ft
Windchill 37 °F
Dew Point 30 °F
Humidity 68%
Rainfall 0.00 in
Snow Depth Not available.
7:47 AM 4:57 PM
First Quarter, 55% visible
METAR KMTC 071958Z 21012KT 10SM FEW036 SCT200 04/M04 A2995 RMK AO2A SLP151 T00371036
Pressure 29.98 in
Visibility 10.0 miles
Clouds Few 3600 ft
Scattered Clouds 20000 ft
Windchill 37 °F
Dew Point 30 °F
Humidity 68%
Rainfall 0.00 in
Snow Depth Not available.
7:47 AM 4:57 PM
First Quarter, 55% visible
METAR KMTC 071958Z 21012KT 10SM FEW036 SCT200 04/M04 A2995 RMK AO2A SLP151 T00371036

10-Day Weather Forecast

Almanac

Astronomy

Dec. 07, 2016 Rise Set
Actual Time
Civil Twilight
Nautical Twilight
Astronomical Twilight
Moon
Length of Visible Light
Length of Day
Tomorrow will be .
, % of the Moon is Illuminated

Today's Extremes

State Highs State Lows

Community

WunderPhotos

Upload Photos

1,956,169 photos uploaded!

WunderBlog® & News

Nearby

Air Quality

  Air Quality AQ Index Pollutant
Not available.

Snow Depth

Station Depth Elevation

Earthquake Activity

City Distance Mag. Time & Date
Minimum magnitude displayed is 2.5.

Coastal Water Temperatures

Place Temperature

Stations

Nearby Weather Stations

Station Location Temp. Windchill Dew Point Humidity Wind Precip. Elev Updated Type
                   

Watches & Warnings

There are currently no watches in effect.